createdAt,value
2018-01-28T00:02:03.034Z,4.5
2018-01-28T00:07:02.828Z,4.5
2018-01-28T00:12:03.009Z,4.5
2018-01-28T00:17:03.152Z,4.5
2018-01-28T00:22:03.628Z,4.6
2018-01-28T00:27:03.685Z,4.6
2018-01-28T00:32:03.697Z,4.6
2018-01-28T00:37:03.010Z,4.6
2018-01-28T00:42:03.096Z,4.7
2018-01-28T00:47:03.251Z,4.7
2018-01-28T00:52:03.125Z,4.8
2018-01-28T00:57:03.128Z,4.8
2018-01-28T01:02:03.273Z,4.8
2018-01-28T01:07:02.987Z,4.8
2018-01-28T01:12:03.173Z,4.7
2018-01-28T01:17:03.262Z,4.7
2018-01-28T01:22:03.394Z,4.6
2018-01-28T01:27:03.468Z,4.6
2018-01-28T01:32:03.263Z,4.6
2018-01-28T01:37:03.526Z,4.6
2018-01-28T01:42:03.534Z,4.6
2018-01-28T01:47:03.618Z,4.7
2018-01-28T01:52:02.733Z,4.9
2018-01-28T01:57:02.718Z,5.0
2018-01-28T02:02:02.715Z,5.1
2018-01-28T02:07:03.382Z,5.1
2018-01-28T02:12:03.576Z,5.1
2018-01-28T02:17:03.589Z,5.2
2018-01-28T02:22:03.167Z,5.3
2018-01-28T02:27:03.147Z,5.2
2018-01-28T02:32:03.257Z,5.4
2018-01-28T02:37:02.807Z,5.4
2018-01-28T02:42:02.821Z,5.5
2018-01-28T02:47:02.786Z,5.7
2018-01-28T02:52:02.668Z,5.8
2018-01-28T02:57:02.699Z,5.8
2018-01-28T03:02:02.773Z,5.9
2018-01-28T03:07:02.876Z,6.0
2018-01-28T03:12:02.967Z,6.0
2018-01-28T03:17:03.096Z,6.1
2018-01-28T03:22:03.292Z,6.0
2018-01-28T03:27:03.150Z,6.1
2018-01-28T03:32:03.152Z,6.2
2018-01-28T03:37:02.995Z,6.2
2018-01-28T03:42:03.116Z,6.3
2018-01-28T03:47:03.184Z,6.3
2018-01-28T03:52:03.160Z,6.4
2018-01-28T03:57:03.285Z,6.5
2018-01-28T04:02:03.503Z,6.5
2018-01-28T04:07:03.655Z,6.6
2018-01-28T04:12:02.834Z,6.5
2018-01-28T04:17:03.268Z,6.6
2018-01-28T04:22:03.188Z,6.7
2018-01-28T04:27:03.250Z,6.7
2018-01-28T04:32:03.345Z,6.7
2018-01-28T04:37:03.585Z,6.7
2018-01-28T04:42:03.586Z,6.7
2018-01-28T04:47:02.801Z,6.8
2018-01-28T04:52:02.937Z,6.8
2018-01-28T04:57:02.967Z,6.7
2018-01-28T05:02:03.078Z,6.8
2018-01-28T05:07:03.363Z,6.7
2018-01-28T05:12:03.629Z,6.8
2018-01-28T05:17:03.826Z,6.7
2018-01-28T05:22:02.895Z,6.7
2018-01-28T05:27:03.169Z,6.7
2018-01-28T05:32:03.167Z,6.7
2018-01-28T05:37:03.250Z,6.7
2018-01-28T05:42:03.195Z,6.7
2018-01-28T05:47:04.607Z,6.7
2018-01-28T05:52:03.404Z,6.7
2018-01-28T05:57:03.451Z,6.7
2018-01-28T06:02:03.585Z,6.6
2018-01-28T06:07:02.873Z,6.5
2018-01-28T06:12:03.061Z,6.5
2018-01-28T06:17:03.524Z,6.6
2018-01-28T06:22:03.299Z,6.5
2018-01-28T06:27:03.432Z,6.5
2018-01-28T06:32:13.626Z,6.5
2018-01-28T06:37:02.934Z,6.5
2018-01-28T06:42:03.190Z,6.5
2018-01-28T06:47:13.817Z,6.5
2018-01-28T06:52:02.732Z,6.5
2018-01-28T06:57:02.850Z,6.6
2018-01-28T07:02:13.806Z,6.5
2018-01-28T07:07:02.831Z,6.6
2018-01-28T07:12:03.357Z,6.6
2018-01-28T07:17:13.830Z,6.6
2018-01-28T07:22:02.790Z,6.6
2018-01-28T07:27:03.037Z,6.7
2018-01-28T07:32:17.811Z,6.7
2018-01-28T07:37:03.437Z,6.8
2018-01-28T07:42:03.546Z,6.8
2018-01-28T07:47:13.190Z,6.8
2018-01-28T07:52:02.934Z,6.9
2018-01-28T07:57:03.135Z,7.0
2018-01-28T08:02:13.546Z,7.1
2018-01-28T08:07:03.482Z,7.2
2018-01-28T08:12:02.813Z,7.2
2018-01-28T08:17:14.044Z,7.4
2018-01-28T08:22:03.573Z,7.7
2018-01-28T08:27:02.698Z,7.7
2018-01-28T08:32:13.305Z,7.8
2018-01-28T08:37:03.279Z,7.9
2018-01-28T08:42:03.403Z,8.0
2018-01-28T08:47:13.721Z,8.0
2018-01-28T08:52:02.680Z,8.0
2018-01-28T08:57:02.941Z,8.3
2018-01-28T09:02:13.423Z,8.4
2018-01-28T09:07:03.459Z,8.5
2018-01-28T09:12:02.756Z,8.6
2018-01-28T09:17:13.250Z,8.6
2018-01-28T09:22:03.169Z,8.9
2018-01-28T09:27:03.305Z,2.4
2018-01-28T09:32:13.284Z,9.0
2018-01-28T09:37:03.367Z,9.0
2018-01-28T09:42:02.998Z,9.3
2018-01-28T09:47:17.089Z,9.3
2018-01-28T09:52:02.815Z,9.5
2018-01-28T09:57:03.010Z,9.5
2018-01-28T10:02:13.537Z,9.7
2018-01-28T10:07:03.481Z,9.7
2018-01-28T10:12:02.808Z,9.9
2018-01-28T10:17:13.600Z,9.8
2018-01-28T10:22:03.288Z,9.8
2018-01-28T10:27:03.477Z,9.7
2018-01-28T10:32:13.936Z,9.7
2018-01-28T10:37:02.698Z,9.7
2018-01-28T10:42:02.870Z,9.9
2018-01-28T10:47:15.949Z,10.0
2018-01-28T10:52:03.169Z,10.0
2018-01-28T10:57:03.367Z,10.2
2018-01-28T11:02:13.786Z,10.2
2018-01-28T11:07:02.835Z,10.2
2018-01-28T11:12:03.110Z,10.2
2018-01-28T11:17:13.925Z,10.2
2018-01-28T11:22:03.495Z,10.4
2018-01-28T11:27:03.678Z,10.6
2018-01-28T11:32:13.238Z,10.7
2018-01-28T11:37:03.018Z,10.9
2018-01-28T11:42:03.159Z,11.1
2018-01-28T11:47:13.674Z,11.2
2018-01-28T11:52:03.558Z,11.2
2018-01-28T11:57:03.560Z,11.5
2018-01-28T12:02:13.569Z,11.5
2018-01-28T12:07:02.775Z,11.9
2018-01-28T12:12:03.026Z,11.9
2018-01-28T12:17:13.796Z,12.0
2018-01-28T12:22:03.432Z,11.8
2018-01-28T12:27:03.593Z,11.8
2018-01-28T12:32:13.228Z,11.8
2018-01-28T12:37:02.943Z,11.7
2018-01-28T12:42:02.954Z,11.8
2018-01-28T12:47:11.662Z,11.7
2018-01-28T12:52:03.373Z,11.7
2018-01-28T12:57:03.498Z,11.7
2018-01-28T13:02:12.949Z,11.4
2018-01-28T13:07:02.927Z,11.4
2018-01-28T13:12:03.222Z,11.4
2018-01-28T13:17:13.579Z,11.4
2018-01-28T13:22:03.507Z,11.5
2018-01-28T13:27:02.716Z,11.5
2018-01-28T13:32:12.960Z,11.5
2018-01-28T13:37:03.075Z,11.5
2018-01-28T13:42:03.245Z,11.5
2018-01-28T13:47:13.733Z,11.5
2018-01-28T13:52:03.524Z,11.3
2018-01-28T13:57:02.655Z,11.2
2018-01-28T14:02:13.090Z,11.4
2018-01-28T14:07:03.340Z,11.4
2018-01-28T14:12:03.557Z,11.6
2018-01-28T14:17:13.998Z,11.7
2018-01-28T14:22:02.906Z,11.7
2018-01-28T14:27:03.070Z,11.5
2018-01-28T14:32:13.621Z,11.6
2018-01-28T14:37:03.450Z,12.0
2018-01-28T14:42:03.475Z,11.9
2018-01-28T14:47:18.577Z,12.0
2018-01-28T14:52:02.828Z,11.9
2018-01-28T14:57:03.204Z,11.9
2018-01-28T15:02:13.416Z,11.8
2018-01-28T15:07:03.437Z,11.7
2018-01-28T15:12:02.622Z,11.4
2018-01-28T15:17:13.500Z,11.3
2018-01-28T15:22:03.141Z,11.3
2018-01-28T15:27:03.246Z,11.3
2018-01-28T15:32:13.914Z,11.4
2018-01-28T15:37:03.662Z,11.4
2018-01-28T15:42:02.674Z,11.1
2018-01-28T15:47:17.439Z,11.0
2018-01-28T15:52:03.035Z,11.0
2018-01-28T15:57:03.092Z,11.0
2018-01-28T16:02:13.684Z,10.9
2018-01-28T16:07:03.500Z,10.9
2018-01-28T16:12:02.913Z,10.5
2018-01-28T16:17:13.622Z,10.5
2018-01-28T16:22:03.472Z,10.4
2018-01-28T16:27:03.055Z,10.3
2018-01-28T16:32:13.276Z,10.0
2018-01-28T16:37:03.203Z,10.0
2018-01-28T16:42:03.281Z,9.9
2018-01-28T16:47:16.800Z,9.7
2018-01-28T16:52:02.890Z,9.6
2018-01-28T16:57:03.121Z,9.6
2018-01-28T17:02:03.622Z,9.5
2018-01-28T17:07:03.443Z,9.5
2018-01-28T17:12:02.850Z,9.5
2018-01-28T17:17:03.213Z,9.5
2018-01-28T17:22:03.229Z,9.6
2018-01-28T17:27:03.270Z,9.5
2018-01-28T17:32:03.326Z,9.6
2018-01-28T17:37:03.488Z,9.6
2018-01-28T17:42:03.514Z,9.5
2018-01-28T17:47:03.644Z,9.6
2018-01-28T17:52:02.850Z,9.7
2018-01-28T17:57:03.025Z,9.7
2018-01-28T18:02:03.154Z,9.7
2018-01-28T18:07:03.397Z,9.6
2018-01-28T18:12:03.579Z,9.7
2018-01-28T18:17:03.700Z,9.7
2018-01-28T18:22:02.850Z,9.7
2018-01-28T18:27:03.022Z,9.7
2018-01-28T18:32:03.187Z,9.6
2018-01-28T18:37:03.310Z,9.6
2018-01-28T18:42:03.352Z,9.5
2018-01-28T18:47:03.471Z,9.4
2018-01-28T18:52:03.519Z,9.2
2018-01-28T18:57:02.748Z,9.1
2018-01-28T19:02:02.891Z,9.1
2018-01-28T19:07:03.059Z,9.0
2018-01-28T19:12:03.285Z,9.0
2018-01-28T19:17:03.839Z,9.0
2018-01-28T19:22:03.600Z,9.0
2018-01-28T19:27:03.617Z,8.9
2018-01-28T19:32:03.118Z,8.8
2018-01-28T19:37:02.998Z,8.8
2018-01-28T19:42:03.152Z,8.8
2018-01-28T19:47:03.234Z,8.8
2018-01-28T19:52:03.365Z,8.9
2018-01-28T19:57:03.421Z,8.7
2018-01-28T20:02:03.563Z,8.7
2018-01-28T20:07:02.940Z,8.6
2018-01-28T20:12:03.277Z,8.6
2018-01-28T20:17:03.409Z,8.5
2018-01-28T20:22:03.502Z,8.6
2018-01-28T20:27:03.615Z,8.7
2018-01-28T20:32:03.755Z,8.6
2018-01-28T20:37:02.860Z,8.7
2018-01-28T20:42:03.065Z,8.6
2018-01-28T20:47:04.778Z,8.3
2018-01-28T20:52:03.165Z,8.3
2018-01-28T20:57:03.255Z,8.3
2018-01-28T21:02:03.503Z,8.5
2018-01-28T21:07:03.632Z,8.5
2018-01-28T21:12:02.943Z,8.5
2018-01-28T21:17:03.283Z,8.6
2018-01-28T21:22:03.321Z,8.5
2018-01-28T21:27:03.383Z,8.5
2018-01-28T21:32:03.542Z,8.5
2018-01-28T21:37:03.661Z,8.4
2018-01-28T21:42:02.749Z,8.2
2018-01-28T21:47:02.972Z,8.2
2018-01-28T21:52:03.164Z,8.0
2018-01-28T21:57:03.196Z,8.0
2018-01-28T22:02:03.330Z,7.9
2018-01-28T22:07:03.548Z,7.9
2018-01-28T22:12:02.801Z,7.8
2018-01-28T22:17:03.164Z,7.8
2018-01-28T22:22:03.242Z,7.8
2018-01-28T22:27:03.270Z,7.7
2018-01-28T22:32:03.370Z,7.5
2018-01-28T22:37:03.435Z,7.5
2018-01-28T22:42:03.597Z,7.5
2018-01-28T22:47:03.668Z,7.5
2018-01-28T22:52:02.917Z,7.4
2018-01-28T22:57:03.080Z,7.4
2018-01-28T23:02:03.255Z,7.3
2018-01-28T23:07:03.214Z,7.2
2018-01-28T23:12:03.145Z,7.2
2018-01-28T23:22:03.623Z,7.2
2018-01-28T23:27:03.359Z,7.1
2018-01-28T23:32:03.280Z,7.1
2018-01-28T23:37:03.213Z,7.1
2018-01-28T23:42:03.094Z,7.0
2018-01-28T23:47:02.882Z,6.8
2018-01-28T23:52:02.962Z,6.8
2018-01-28T23:57:02.764Z,6.8
